createdAt,value
2019-02-25T00:00:19.275Z,96.28
2019-02-25T00:01:19.697Z,96.63
2019-02-25T00:02:19.601Z,96.64
2019-02-25T00:03:19.321Z,96.66
2019-02-25T00:04:20.225Z,96.86
2019-02-25T00:05:20.544Z,96.95
2019-02-25T00:06:20.852Z,97.08
2019-02-25T00:07:21.168Z,97.13
2019-02-25T00:08:21.691Z,97.25
2019-02-25T00:09:21.598Z,97.55
2019-02-25T00:10:21.804Z,97.73
2019-02-25T00:11:22.007Z,97.77
2019-02-25T00:12:22.427Z,98.34
2019-02-25T00:13:22.844Z,97.77
2019-02-25T00:14:23.481Z,98.27
2019-02-25T00:15:23.267Z,97.83
2019-02-25T00:16:23.298Z,97.77
2019-02-25T00:17:23.583Z,97.95
2019-02-25T00:18:23.664Z,97.93
2019-02-25T00:19:23.918Z,98.10
2019-02-25T00:20:24.035Z,98.27
2019-02-25T00:21:24.408Z,98.30
2019-02-25T00:22:24.539Z,98.40
2019-02-25T00:23:24.751Z,98.52
2019-02-25T00:24:24.564Z,98.83
2019-02-25T00:25:24.626Z,99.00
2019-02-25T00:26:25.261Z,99.09
2019-02-25T00:27:24.981Z,99.31
2019-02-25T00:28:24.852Z,99.65
2019-02-25T00:29:25.189Z,99.72
2019-02-25T00:30:25.496Z,99.80
2019-02-25T00:31:25.879Z,100.00
2019-02-25T00:32:26.230Z,100.00
2019-02-25T00:33:27.481Z,100.00
2019-02-25T00:34:27.914Z,100.00
2019-02-25T00:35:28.313Z,100.00
2019-02-25T00:36:28.826Z,100.00
2019-02-25T00:37:28.733Z,100.00
2019-02-25T00:38:29.044Z,100.00
2019-02-25T00:39:29.269Z,100.00
2019-02-25T00:40:29.570Z,100.00
2019-02-25T00:41:29.784Z,100.00
2019-02-25T00:42:30.302Z,100.00
2019-02-25T00:43:30.103Z,100.00
2019-02-25T00:44:30.320Z,100.00
2019-02-25T00:45:30.832Z,100.00
2019-02-25T00:46:30.635Z,100.00
2019-02-25T00:47:31.051Z,100.00
2019-02-25T00:48:31.264Z,100.00
2019-02-25T00:49:31.792Z,100.00
2019-02-25T00:50:31.655Z,100.00
2019-02-25T00:51:32.101Z,100.00
2019-02-25T00:52:32.229Z,100.00
2019-02-25T00:53:32.522Z,100.00
2019-02-25T00:54:33.153Z,100.00
2019-02-25T00:55:33.050Z,100.00
2019-02-25T00:56:33.364Z,100.00
2019-02-25T00:57:33.677Z,100.00
2019-02-25T00:58:33.993Z,100.00
2019-02-25T00:59:34.321Z,100.00
2019-02-25T01:00:34.723Z,100.00
2019-02-25T01:01:35.128Z,100.00
2019-02-25T01:02:35.651Z,100.00
2019-02-25T01:03:35.452Z,100.00
2019-02-25T01:04:35.672Z,100.00
2019-02-25T01:05:36.202Z,100.00
2019-02-25T01:07:36.197Z,100.00
2019-02-25T01:08:36.720Z,100.00
2019-02-25T01:09:37.133Z,100.00
2019-02-25T01:10:37.253Z,100.00
2019-02-25T01:11:37.763Z,100.00
2019-02-25T01:12:37.561Z,100.00
2019-02-25T01:13:37.978Z,100.00
2019-02-25T01:14:38.501Z,100.00
2019-02-25T01:15:38.726Z,100.00
2019-02-25T01:16:38.718Z,100.00
2019-02-25T01:17:38.919Z,100.00
2019-02-25T01:18:38.627Z,100.00
2019-02-25T01:19:39.250Z,100.00
2019-02-25T01:20:38.975Z,100.00
2019-02-25T01:21:39.366Z,100.00
2019-02-25T01:22:39.635Z,100.00
2019-02-25T01:23:39.875Z,100.00
2019-02-25T01:24:39.794Z,100.00
2019-02-25T01:25:41.104Z,100.00
2019-02-25T01:26:41.037Z,100.00
2019-02-25T01:27:41.448Z,100.00
2019-02-25T01:28:41.924Z,100.00
2019-02-25T01:29:42.900Z,100.00
2019-02-25T01:30:43.313Z,100.00
2019-02-25T01:31:43.524Z,100.00
2019-02-25T01:32:44.043Z,100.00
2019-02-25T01:33:43.642Z,100.00
2019-02-25T01:34:43.750Z,100.00
2019-02-25T01:35:44.184Z,100.00
2019-02-25T01:36:44.479Z,100.00
2019-02-25T01:37:44.894Z,100.00
2019-02-25T01:38:45.412Z,99.94
2019-02-25T01:39:45.188Z,98.95
2019-02-25T01:40:45.749Z,98.40
2019-02-25T01:41:45.638Z,97.35
2019-02-25T01:42:46.155Z,96.47
2019-02-25T01:43:45.856Z,95.46
2019-02-25T01:44:46.474Z,94.16
2019-02-25T01:45:46.387Z,94.06
2019-02-25T01:46:47.000Z,93.62
2019-02-25T01:47:47.009Z,92.73
2019-02-25T01:48:47.527Z,92.29
2019-02-25T01:49:47.534Z,92.20
2019-02-25T01:50:47.658Z,91.64
2019-02-25T01:51:47.551Z,90.87
2019-02-25T01:52:48.064Z,90.79
2019-02-25T01:53:48.076Z,90.59
2019-02-25T01:54:48.178Z,90.63
2019-02-25T01:55:48.190Z,90.91
2019-02-25T01:56:48.500Z,91.01
2019-02-25T01:57:49.022Z,90.96
2019-02-25T01:58:48.819Z,90.99
2019-02-25T01:59:49.337Z,91.41
2019-02-25T02:00:49.249Z,91.64
2019-02-25T02:01:49.661Z,91.59
2019-02-25T02:02:50.177Z,91.48
2019-02-25T02:03:49.776Z,91.76
2019-02-25T02:04:50.192Z,91.78
2019-02-25T02:05:50.307Z,91.87
2019-02-25T02:06:50.722Z,92.10
2019-02-25T02:07:51.234Z,92.24
2019-02-25T02:08:51.239Z,92.28
2019-02-25T02:09:51.144Z,92.27
2019-02-25T02:10:51.467Z,92.04
2019-02-25T02:11:51.874Z,92.32
2019-02-25T02:12:52.194Z,92.36
2019-02-25T02:13:52.401Z,92.00
2019-02-25T02:14:52.916Z,92.01
2019-02-25T02:15:52.824Z,92.27
2019-02-25T02:16:53.254Z,92.37
2019-02-25T02:17:53.487Z,92.42
2019-02-25T02:18:53.581Z,92.66
2019-02-25T02:19:53.976Z,92.76
2019-02-25T02:20:54.245Z,93.33
2019-02-25T02:21:54.210Z,93.66
2019-02-25T02:22:54.260Z,93.73
2019-02-25T02:23:54.592Z,93.65
2019-02-25T02:24:54.929Z,93.73
2019-02-25T02:25:54.869Z,93.89
2019-02-25T02:26:55.216Z,94.17
2019-02-25T02:27:56.060Z,94.75
2019-02-25T02:28:55.917Z,94.79
2019-02-25T02:29:57.418Z,95.13
2019-02-25T02:30:57.323Z,95.44
2019-02-25T02:31:57.338Z,95.90
2019-02-25T02:32:57.544Z,95.96
2019-02-25T02:33:57.958Z,95.48
2019-02-25T02:34:58.150Z,94.86
2019-02-25T02:35:58.484Z,94.37
2019-02-25T02:36:59.016Z,93.92
2019-02-25T02:37:58.809Z,93.69
2019-02-25T02:38:59.323Z,93.76
2019-02-25T02:39:59.130Z,94.03
2019-02-25T02:40:59.644Z,94.33
2019-02-25T02:41:59.560Z,94.64
2019-02-25T02:42:59.816Z,94.97
2019-02-25T02:44:00.382Z,95.16
2019-02-25T02:45:00.329Z,95.86
2019-02-25T02:46:00.394Z,95.67
2019-02-25T02:47:00.816Z,95.80
2019-02-25T02:49:01.231Z,95.97
2019-02-25T02:50:01.445Z,96.42
2019-02-25T02:51:02.165Z,96.63
2019-02-25T02:52:02.794Z,97.03
2019-02-25T02:53:02.892Z,97.18
2019-02-25T02:54:02.775Z,97.43
2019-02-25T02:55:03.319Z,97.64
2019-02-25T02:56:03.528Z,97.81
2019-02-25T02:57:03.637Z,98.03
2019-02-25T02:58:03.440Z,98.22
2019-02-25T02:59:03.754Z,98.45
2019-02-25T03:00:04.168Z,98.54
2019-02-25T03:01:05.282Z,98.64
2019-02-25T03:02:04.486Z,98.80
2019-02-25T03:03:03.852Z,98.72
2019-02-25T03:04:04.603Z,98.83
2019-02-25T03:05:04.816Z,99.33
2019-02-25T03:06:04.734Z,99.19
2019-02-25T03:07:05.648Z,99.48
2019-02-25T03:08:05.510Z,99.56
2019-02-25T03:09:05.807Z,99.64
2019-02-25T03:10:06.270Z,99.82
2019-02-25T03:11:06.253Z,99.48
2019-02-25T03:12:06.555Z,99.83
2019-02-25T03:13:07.228Z,99.47
2019-02-25T03:14:07.215Z,99.54
2019-02-25T03:15:07.850Z,99.43
2019-02-25T03:16:07.904Z,99.51
2019-02-25T03:17:08.265Z,99.76
2019-02-25T03:18:08.649Z,99.86
2019-02-25T03:19:08.951Z,99.92
2019-02-25T03:20:09.278Z,99.94
2019-02-25T03:21:09.830Z,100.00
2019-02-25T03:22:10.559Z,100.00
2019-02-25T03:23:10.885Z,100.00
2019-02-25T03:24:10.720Z,100.00
2019-02-25T03:25:11.180Z,100.00
2019-02-25T03:26:11.143Z,100.00
2019-02-25T03:27:11.902Z,100.00
2019-02-25T03:28:12.250Z,100.00
2019-02-25T03:29:12.114Z,100.00
2019-02-25T03:30:12.696Z,100.00
2019-02-25T03:31:12.752Z,100.00
2019-02-25T03:32:12.967Z,100.00
2019-02-25T03:33:13.279Z,100.00
2019-02-25T03:34:13.508Z,100.00
2019-02-25T03:35:14.326Z,100.00
2019-02-25T03:36:14.189Z,100.00
2019-02-25T03:37:14.650Z,100.00
2019-02-25T03:38:15.283Z,100.00
2019-02-25T03:39:15.252Z,100.00
2019-02-25T03:40:16.208Z,100.00
2019-02-25T03:41:15.998Z,100.00
2019-02-25T03:42:15.763Z,100.00
2019-02-25T03:43:16.083Z,100.00
2019-02-25T03:44:16.348Z,100.00
2019-02-25T03:45:16.831Z,100.00
2019-02-25T03:46:17.577Z,100.00
2019-02-25T03:47:17.686Z,100.00
2019-02-25T03:48:17.786Z,100.00
2019-02-25T03:49:18.258Z,100.00
2019-02-25T03:50:18.195Z,100.00
2019-02-25T03:51:18.449Z,100.00
2019-02-25T03:52:18.798Z,100.00
2019-02-25T03:53:19.118Z,100.00
2019-02-25T03:54:19.620Z,100.00
2019-02-25T03:55:19.935Z,100.00
2019-02-25T03:56:20.512Z,100.00
2019-02-25T03:57:20.354Z,100.00
2019-02-25T03:58:21.338Z,100.00
2019-02-25T03:59:21.106Z,100.00
2019-02-25T04:00:22.073Z,100.00
2019-02-25T04:01:21.937Z,100.00
2019-02-25T04:02:22.243Z,100.00
2019-02-25T04:03:23.420Z,100.00
2019-02-25T04:04:22.767Z,100.00
2019-02-25T04:05:23.089Z,100.00
2019-02-25T04:06:23.544Z,100.00
2019-02-25T04:07:23.915Z,100.00
2019-02-25T04:08:24.229Z,100.00
2019-02-25T04:09:24.688Z,100.00
2019-02-25T04:10:25.618Z,100.00
2019-02-25T04:11:25.491Z,100.00
2019-02-25T04:12:28.190Z,100.00
2019-02-25T04:13:26.174Z,100.00
2019-02-25T04:14:26.664Z,100.00
2019-02-25T04:15:27.394Z,100.00
2019-02-25T04:16:27.262Z,100.00
2019-02-25T04:17:27.563Z,100.00
2019-02-25T04:18:27.807Z,100.00
2019-02-25T04:19:28.200Z,100.00
2019-02-25T04:20:28.676Z,100.00
2019-02-25T04:21:29.166Z,100.00
2019-02-25T04:22:29.645Z,100.00
2019-02-25T04:23:29.446Z,100.00
2019-02-25T04:24:29.766Z,100.00
2019-02-25T04:25:30.054Z,100.00
2019-02-25T04:26:30.514Z,100.00
2019-02-25T04:27:30.949Z,100.00
2019-02-25T04:31:38.115Z,100.00
2019-02-25T04:32:59.531Z,100.00
2019-02-25T04:33:38.246Z,100.00
2019-02-25T04:34:38.591Z,100.00
2019-02-25T04:35:38.441Z,100.00
2019-02-25T04:36:39.517Z,100.00
2019-02-25T04:37:38.861Z,100.00
2019-02-25T04:38:39.187Z,100.00
2019-02-25T04:39:39.673Z,100.00
2019-02-25T04:40:39.883Z,100.00
2019-02-25T04:41:39.766Z,100.00
2019-02-25T04:42:40.137Z,100.00
2019-02-25T04:43:41.107Z,100.00
2019-02-25T04:44:40.974Z,100.00
2019-02-25T04:45:41.452Z,100.00
2019-02-25T04:46:42.555Z,100.00
2019-02-25T04:47:42.261Z,100.00
2019-02-25T04:48:42.133Z,100.00
2019-02-25T04:49:42.581Z,100.00
2019-02-25T04:50:42.887Z,100.00
2019-02-25T04:51:43.048Z,100.00
2019-02-25T04:52:43.360Z,100.00
2019-02-25T04:53:44.135Z,100.00
2019-02-25T04:54:44.100Z,100.00
2019-02-25T04:55:44.459Z,100.00
2019-02-25T04:56:44.325Z,100.00
2019-02-25T04:57:45.353Z,100.00
2019-02-25T04:58:45.141Z,100.00
2019-02-25T04:59:45.489Z,100.00
2019-02-25T05:00:46.329Z,100.00
2019-02-25T05:01:46.197Z,100.00
2019-02-25T05:02:46.710Z,100.00
2019-02-25T05:03:46.526Z,100.00
2019-02-25T05:04:46.960Z,100.00
2019-02-25T05:05:48.112Z,100.00
2019-02-25T05:06:47.422Z,100.00
2019-02-25T05:07:47.913Z,100.00
2019-02-25T05:08:48.251Z,100.00
2019-02-25T05:09:48.700Z,100.00
2019-02-25T05:10:49.015Z,100.00
2019-02-25T05:11:50.208Z,100.00
2019-02-25T05:12:49.519Z,100.00
2019-02-25T05:13:49.838Z,100.00
2019-02-25T05:14:50.178Z,100.00
2019-02-25T05:15:50.440Z,100.00
2019-02-25T05:16:50.946Z,100.00
2019-02-25T05:17:50.937Z,100.00
2019-02-25T05:18:51.327Z,100.00
2019-02-25T05:19:51.770Z,100.00
2019-02-25T05:20:52.185Z,100.00
2019-02-25T05:21:52.759Z,100.00
2019-02-25T05:22:52.575Z,100.00
2019-02-25T05:23:53.346Z,100.00
2019-02-25T05:24:53.762Z,100.00
2019-02-25T05:25:55.754Z,100.00
2019-02-25T05:26:54.315Z,100.00
2019-02-25T05:27:53.984Z,100.00
2019-02-25T05:28:53.851Z,100.00
2019-02-25T05:29:54.174Z,100.00
2019-02-25T05:30:54.580Z,100.00
2019-02-25T05:31:54.885Z,100.00
2019-02-25T05:32:55.305Z,100.00
2019-02-25T05:33:55.788Z,100.00
2019-02-25T05:34:55.914Z,100.00
2019-02-25T05:35:56.189Z,100.00
2019-02-25T05:36:56.529Z,100.00
2019-02-25T05:37:56.862Z,100.00
2019-02-25T05:38:58.762Z,100.00
2019-02-25T05:39:57.514Z,100.00
2019-02-25T05:40:57.915Z,100.00
2019-02-25T05:41:59.454Z,100.00
2019-02-25T05:42:59.696Z,100.00
2019-02-25T05:44:00.639Z,100.00
2019-02-25T05:45:00.479Z,100.00
2019-02-25T05:46:01.071Z,100.00
2019-02-25T05:47:01.164Z,100.00
2019-02-25T05:48:01.581Z,100.00
2019-02-25T05:49:01.693Z,100.00
2019-02-25T05:50:02.269Z,100.00
2019-02-25T05:51:01.811Z,100.00
2019-02-25T05:52:02.701Z,100.00
2019-02-25T05:53:02.951Z,100.00
2019-02-25T05:54:03.110Z,100.00
2019-02-25T05:55:03.470Z,100.00
2019-02-25T05:56:03.690Z,100.00
2019-02-25T05:57:04.112Z,100.00
2019-02-25T05:58:04.311Z,100.00
2019-02-25T05:59:04.826Z,100.00
2019-02-25T06:00:04.733Z,100.00
2019-02-25T06:01:05.248Z,100.00
2019-02-25T06:02:05.682Z,100.00
2019-02-25T06:03:06.054Z,100.00
2019-02-25T06:04:05.992Z,100.00
2019-02-25T06:05:06.920Z,100.00
2019-02-25T06:06:07.139Z,100.00
2019-02-25T06:07:07.446Z,100.00
2019-02-25T06:08:07.750Z,100.00
2019-02-25T06:09:08.177Z,100.00
2019-02-25T06:10:08.275Z,100.00
2019-02-25T06:11:08.488Z,100.00
2019-02-25T06:12:09.045Z,100.00
2019-02-25T06:13:09.012Z,100.00
2019-02-25T06:14:09.123Z,100.00
2019-02-25T06:15:09.437Z,100.00
2019-02-25T06:16:10.201Z,100.00
2019-02-25T06:17:09.769Z,100.00
2019-02-25T06:18:09.983Z,100.00
2019-02-25T06:19:10.180Z,100.00
2019-02-25T06:20:10.594Z,100.00
2019-02-25T06:21:10.935Z,100.00
2019-02-25T06:22:11.231Z,100.00
2019-02-25T06:23:11.540Z,100.00
2019-02-25T06:24:11.960Z,100.00
2019-02-25T06:25:12.374Z,100.00
2019-02-25T06:26:12.579Z,100.00
2019-02-25T06:28:12.807Z,100.00
2019-02-25T06:29:13.317Z,100.00
2019-02-25T06:30:13.835Z,100.00
2019-02-25T06:31:13.643Z,100.00
2019-02-25T06:32:14.053Z,100.00
2019-02-25T06:33:14.477Z,100.00
2019-02-25T06:34:14.909Z,100.00
2019-02-25T06:35:15.253Z,100.00
2019-02-25T06:36:15.625Z,100.00
2019-02-25T06:37:16.040Z,100.00
2019-02-25T06:38:16.044Z,100.00
2019-02-25T06:39:16.153Z,100.00
2019-02-25T06:40:16.563Z,100.00
2019-02-25T06:41:16.365Z,100.00
2019-02-25T06:42:16.883Z,100.00
2019-02-25T06:43:17.298Z,100.00
2019-02-25T06:44:17.313Z,100.00
2019-02-25T06:45:18.138Z,100.00
2019-02-25T06:46:18.343Z,100.00
2019-02-25T06:47:18.765Z,100.00
2019-02-25T06:48:19.183Z,100.00
2019-02-25T06:49:19.596Z,100.00
2019-02-25T06:50:20.112Z,100.00
2019-02-25T06:51:20.020Z,100.00
2019-02-25T06:52:20.532Z,100.00
2019-02-25T06:53:20.549Z,100.00
2019-02-25T06:54:20.345Z,100.00
2019-02-25T06:55:20.657Z,100.00
2019-02-25T06:56:20.863Z,100.00
2019-02-25T06:57:21.382Z,100.00
2019-02-25T06:58:23.105Z,100.00
2019-02-25T06:59:21.397Z,100.00
2019-02-25T07:00:21.916Z,100.00
2019-02-25T07:01:21.827Z,100.00
2019-02-25T07:02:22.241Z,100.00
2019-02-25T07:03:22.762Z,100.00
2019-02-25T07:04:22.658Z,100.00
2019-02-25T07:05:23.075Z,100.00
2019-02-25T07:06:23.086Z,100.00
2019-02-25T07:07:23.191Z,100.00
2019-02-25T07:08:23.310Z,100.00
2019-02-25T07:09:23.517Z,100.00
2019-02-25T07:10:23.626Z,100.00
2019-02-25T07:11:23.357Z,100.00
2019-02-25T07:12:24.041Z,99.33
2019-02-25T07:13:24.058Z,98.61
2019-02-25T07:14:24.566Z,97.69
2019-02-25T07:15:24.783Z,97.99
2019-02-25T07:16:24.721Z,97.49
2019-02-25T07:17:25.105Z,97.10
2019-02-25T07:18:25.320Z,97.09
2019-02-25T07:19:25.727Z,96.63
2019-02-25T07:20:25.937Z,95.23
2019-02-25T07:21:25.953Z,94.51
2019-02-25T07:22:26.258Z,93.88
2019-02-25T07:23:26.165Z,92.23
2019-02-25T07:24:26.373Z,92.04
2019-02-25T07:25:26.894Z,91.11
2019-02-25T07:26:27.642Z,89.76
2019-02-25T07:27:27.312Z,89.60
2019-02-25T07:28:27.275Z,89.27
2019-02-25T07:29:27.432Z,89.48
2019-02-25T07:30:27.647Z,88.93
2019-02-25T07:31:27.549Z,89.08
2019-02-25T07:32:27.473Z,88.40
2019-02-25T07:34:28.206Z,88.41
2019-02-25T07:35:28.093Z,87.93
2019-02-25T07:36:28.308Z,87.39
2019-02-25T07:37:28.819Z,87.24
2019-02-25T07:38:28.927Z,86.34
2019-02-25T07:39:29.336Z,86.11
2019-02-25T07:40:29.861Z,86.15
2019-02-25T07:41:30.077Z,85.42
2019-02-25T07:42:30.181Z,84.62
2019-02-25T07:43:30.085Z,84.17
2019-02-25T07:44:30.206Z,83.92
2019-02-25T07:45:30.918Z,82.46
2019-02-25T07:46:30.829Z,82.45
2019-02-25T07:47:30.725Z,81.70
2019-02-25T07:48:30.963Z,81.79
2019-02-25T07:49:31.615Z,81.07
2019-02-25T07:50:31.456Z,80.24
2019-02-25T07:51:32.202Z,78.64
2019-02-25T07:52:32.009Z,79.21
2019-02-25T07:53:32.402Z,78.67
2019-02-25T07:54:32.615Z,77.90
2019-02-25T07:55:32.828Z,77.38
2019-02-25T07:56:33.090Z,76.20
2019-02-25T07:57:33.503Z,74.38
2019-02-25T07:58:34.275Z,74.27
2019-02-25T07:59:34.387Z,73.91
2019-02-25T08:00:34.388Z,73.07
2019-02-25T08:01:34.502Z,72.07
2019-02-25T08:02:34.926Z,70.10
2019-02-25T08:03:35.235Z,68.99
2019-02-25T08:04:35.393Z,69.08
2019-02-25T08:05:35.860Z,68.20
2019-02-25T08:06:36.380Z,67.99
2019-02-25T08:07:36.935Z,66.90
2019-02-25T08:08:37.001Z,65.01
2019-02-25T08:09:37.538Z,63.57
2019-02-25T08:10:37.533Z,64.60
2019-02-25T08:12:37.654Z,64.92
2019-02-25T08:13:37.860Z,63.85
2019-02-25T08:14:38.273Z,63.42
2019-02-25T08:15:38.486Z,62.74
2019-02-25T08:16:38.699Z,62.52
2019-02-25T08:17:38.813Z,61.06
2019-02-25T08:18:39.119Z,61.48
2019-02-25T08:19:38.976Z,60.35
2019-02-25T08:20:39.753Z,60.72
2019-02-25T08:21:39.549Z,59.85
2019-02-25T08:22:39.871Z,60.11
2019-02-25T08:23:39.867Z,58.97
2019-02-25T08:24:40.080Z,58.34
2019-02-25T08:25:39.833Z,57.54
2019-02-25T08:26:40.403Z,56.90
2019-02-25T08:27:40.719Z,57.69
2019-02-25T08:28:40.617Z,55.82
2019-02-25T08:29:41.135Z,56.35
2019-02-25T08:30:41.561Z,56.02
2019-02-25T08:31:41.866Z,55.59
2019-02-25T08:32:42.322Z,55.73
2019-02-25T08:33:42.217Z,53.97
2019-02-25T08:34:42.604Z,54.05
2019-02-25T08:35:42.304Z,53.49
2019-02-25T08:36:42.513Z,52.41
2019-02-25T08:37:42.404Z,51.51
2019-02-25T08:38:43.479Z,51.23
2019-02-25T08:39:43.516Z,50.44
2019-02-25T08:40:43.665Z,49.08
2019-02-25T08:41:43.671Z,47.51
2019-02-25T08:42:43.985Z,47.83
2019-02-25T08:43:43.898Z,46.35
2019-02-25T08:44:44.304Z,46.04
2019-02-25T08:45:44.824Z,45.37
2019-02-25T08:46:45.243Z,44.29
2019-02-25T08:47:45.553Z,43.87
2019-02-25T08:48:45.477Z,43.44
2019-02-25T08:49:45.976Z,43.14
2019-02-25T08:50:46.291Z,43.13
2019-02-25T08:51:46.517Z,42.86
2019-02-25T08:52:46.712Z,42.75
2019-02-25T08:53:47.035Z,42.29
2019-02-25T08:54:47.443Z,41.55
2019-02-25T08:55:47.961Z,41.79
2019-02-25T08:56:47.560Z,42.04
2019-02-25T08:57:47.974Z,41.87
2019-02-25T08:58:47.799Z,41.62
2019-02-25T08:59:48.610Z,41.51
2019-02-25T09:00:48.814Z,41.05
2019-02-25T09:01:48.924Z,41.16
2019-02-25T09:02:48.928Z,40.67
2019-02-25T09:03:49.967Z,40.68
2019-02-25T09:04:50.070Z,40.09
2019-02-25T09:05:49.767Z,40.20
2019-02-25T09:06:50.285Z,40.19
2019-02-25T09:07:50.189Z,39.82
2019-02-25T09:08:50.418Z,40.04
2019-02-25T09:09:50.919Z,39.75
2019-02-25T09:10:50.727Z,39.52
2019-02-25T09:11:51.240Z,39.25
2019-02-25T09:12:51.029Z,39.31
2019-02-25T09:13:51.354Z,39.31
2019-02-25T09:14:51.879Z,39.26
2019-02-25T09:15:51.983Z,38.85
2019-02-25T09:16:51.886Z,38.73
2019-02-25T09:17:52.203Z,38.54
2019-02-25T09:18:52.308Z,38.75
2019-02-25T09:19:52.575Z,38.82
2019-02-25T09:20:53.038Z,38.48
2019-02-25T09:21:53.353Z,38.92
2019-02-25T09:22:53.878Z,38.93
2019-02-25T09:23:53.782Z,39.33
2019-02-25T09:24:54.164Z,39.76
2019-02-25T09:25:54.506Z,39.97
2019-02-25T09:26:54.819Z,40.44
2019-02-25T09:27:55.234Z,40.14
2019-02-25T09:28:57.310Z,39.98
2019-02-25T09:29:55.974Z,39.57
2019-02-25T09:30:56.381Z,38.99
2019-02-25T09:31:56.911Z,38.22
2019-02-25T09:32:56.905Z,37.52
2019-02-25T09:33:57.424Z,36.59
2019-02-25T09:34:57.083Z,36.25
2019-02-25T09:35:57.646Z,35.63
2019-02-25T09:36:57.652Z,34.91
2019-02-25T09:37:57.967Z,34.22
2019-02-25T09:38:58.378Z,34.17
2019-02-25T09:39:58.796Z,34.15
2019-02-25T09:40:59.120Z,34.12
2019-02-25T09:41:59.630Z,33.84
2019-02-25T09:42:59.635Z,33.74
2019-02-25T09:44:00.054Z,33.84
2019-02-25T09:45:00.466Z,34.01
2019-02-25T09:46:00.890Z,33.74
2019-02-25T09:47:01.401Z,34.19
2019-02-25T09:48:01.612Z,34.21
2019-02-25T09:49:01.937Z,34.14
2019-02-25T09:50:02.035Z,34.16
2019-02-25T09:51:02.765Z,34.33
2019-02-25T09:52:03.277Z,34.54
2019-02-25T09:53:03.080Z,34.15
2019-02-25T09:54:03.236Z,33.88
2019-02-25T09:55:03.808Z,34.02
2019-02-25T09:56:03.968Z,33.96
2019-02-25T09:57:04.538Z,33.83
2019-02-25T09:58:04.234Z,33.89
2019-02-25T09:59:04.654Z,34.31
2019-02-25T10:00:05.172Z,34.25
2019-02-25T10:01:05.600Z,33.54
2019-02-25T10:02:05.602Z,33.20
2019-02-25T10:03:06.219Z,33.52
2019-02-25T10:04:06.326Z,33.54
2019-02-25T10:05:06.438Z,33.42
2019-02-25T10:06:06.452Z,33.69
2019-02-25T10:07:06.343Z,33.96
2019-02-25T10:08:06.861Z,34.08
2019-02-25T10:09:06.901Z,34.01
2019-02-25T10:10:06.874Z,33.67
2019-02-25T10:11:07.102Z,33.22
2019-02-25T10:12:07.092Z,32.86
2019-02-25T10:13:07.360Z,32.50
2019-02-25T10:14:07.619Z,32.37
2019-02-25T10:15:08.167Z,32.11
2019-02-25T10:16:08.052Z,32.21
2019-02-25T10:17:08.148Z,32.31
2019-02-25T10:18:08.673Z,32.35
2019-02-25T10:19:08.354Z,32.21
2019-02-25T10:20:08.582Z,32.24
2019-02-25T10:21:09.004Z,32.50
2019-02-25T10:22:09.519Z,32.55
2019-02-25T10:23:09.274Z,32.63
2019-02-25T10:24:09.583Z,32.33
2019-02-25T10:25:10.049Z,32.06
2019-02-25T10:26:10.463Z,32.18
2019-02-25T10:27:10.989Z,32.57
2019-02-25T10:28:10.985Z,32.53
2019-02-25T10:29:11.400Z,32.55
2019-02-25T10:30:11.715Z,32.01
2019-02-25T10:31:13.181Z,31.71
2019-02-25T10:32:12.149Z,31.07
2019-02-25T10:33:12.655Z,31.03
2019-02-25T10:34:12.971Z,31.03
2019-02-25T10:35:13.190Z,31.19
2019-02-25T10:36:13.701Z,31.47
2019-02-25T10:37:15.587Z,31.57
2019-02-25T10:38:14.227Z,31.84
2019-02-25T10:39:15.529Z,31.87
2019-02-25T10:40:15.995Z,31.80
2019-02-25T10:41:17.124Z,31.93
2019-02-25T10:42:15.696Z,31.99
2019-02-25T10:43:16.205Z,32.07
2019-02-25T10:44:15.964Z,32.02
2019-02-25T10:45:16.424Z,31.90
2019-02-25T10:46:17.687Z,31.80
2019-02-25T10:47:19.010Z,31.55
2019-02-25T10:48:17.703Z,31.51
2019-02-25T10:49:17.066Z,31.28
2019-02-25T10:50:17.041Z,31.19
2019-02-25T10:51:17.176Z,31.12
2019-02-25T10:52:17.375Z,30.48
2019-02-25T10:53:18.216Z,30.14
2019-02-25T10:54:19.121Z,29.70
2019-02-25T10:55:18.226Z,29.58
2019-02-25T10:56:19.910Z,29.68
2019-02-25T10:57:19.342Z,28.13
2019-02-25T10:58:18.760Z,27.96
2019-02-25T10:59:19.275Z,27.88
2019-02-25T11:00:19.185Z,27.15
2019-02-25T11:01:22.037Z,27.70
2019-02-25T11:02:19.618Z,26.98
2019-02-25T11:03:21.708Z,27.44
2019-02-25T11:04:21.793Z,27.86
2019-02-25T11:05:21.215Z,27.57
2019-02-25T11:06:20.863Z,27.59
2019-02-25T11:07:21.391Z,27.52
2019-02-25T11:08:21.489Z,27.32
2019-02-25T11:09:21.490Z,27.00
2019-02-25T11:10:22.383Z,26.49
2019-02-25T11:11:23.198Z,26.34
2019-02-25T11:12:23.799Z,26.33
2019-02-25T11:13:21.517Z,26.14
2019-02-25T11:14:22.444Z,26.14
2019-02-25T11:15:22.935Z,25.89
2019-02-25T11:16:22.730Z,25.86
2019-02-25T11:17:24.426Z,25.97
2019-02-25T11:18:26.663Z,25.71
2019-02-25T11:19:25.021Z,25.72
2019-02-25T11:20:25.151Z,25.88
2019-02-25T11:21:24.952Z,25.70
2019-02-25T11:22:25.369Z,25.68
2019-02-25T11:23:25.584Z,25.66
2019-02-25T11:24:26.121Z,25.54
2019-02-25T11:25:28.476Z,25.61
2019-02-25T11:26:28.876Z,25.71
2019-02-25T11:27:28.631Z,25.26
2019-02-25T11:28:27.772Z,25.30
2019-02-25T11:29:27.773Z,25.00
2019-02-25T11:30:27.472Z,25.13
2019-02-25T11:31:29.168Z,25.14
2019-02-25T11:32:28.020Z,24.76
2019-02-25T11:33:30.259Z,24.89
2019-02-25T11:34:29.546Z,24.89
2019-02-25T11:35:29.173Z,24.45
2019-02-25T11:36:29.660Z,24.41
2019-02-25T11:37:29.977Z,24.60
2019-02-25T11:38:31.261Z,24.53
2019-02-25T11:39:32.515Z,24.52
2019-02-25T11:40:31.837Z,24.82
2019-02-25T11:41:31.836Z,24.99
2019-02-25T11:42:30.901Z,24.96
2019-02-25T11:43:30.936Z,24.70
2019-02-25T11:44:31.356Z,24.83
2019-02-25T11:45:31.912Z,24.60
2019-02-25T11:46:32.081Z,24.35
2019-02-25T11:47:32.598Z,24.30
2019-02-25T11:48:32.103Z,23.99
2019-02-25T11:49:32.405Z,24.15
2019-02-25T11:50:32.698Z,24.08
2019-02-25T11:51:33.136Z,24.04
2019-02-25T11:52:33.347Z,23.84
2019-02-25T11:53:33.464Z,23.70
2019-02-25T11:54:33.378Z,23.61
2019-02-25T11:55:34.083Z,23.54
2019-02-25T11:56:34.602Z,23.42
2019-02-25T11:57:34.511Z,23.49
2019-02-25T11:58:35.035Z,22.97
2019-02-25T11:59:34.931Z,22.86
2019-02-25T12:00:35.445Z,22.78
2019-02-25T12:01:35.350Z,22.86
2019-02-25T12:02:35.676Z,22.81
2019-02-25T12:03:36.180Z,22.89
2019-02-25T12:04:36.202Z,22.73
2019-02-25T12:05:35.985Z,22.73
2019-02-25T12:06:36.265Z,22.84
2019-02-25T12:07:36.494Z,22.90
2019-02-25T12:08:36.837Z,22.86
2019-02-25T12:09:37.354Z,22.75
2019-02-25T12:11:37.156Z,22.77
2019-02-25T12:12:37.672Z,22.77
2019-02-25T12:13:37.578Z,22.80
2019-02-25T12:14:38.020Z,22.81
2019-02-25T12:15:38.408Z,22.69
2019-02-25T12:16:38.723Z,22.79
2019-02-25T12:17:39.037Z,22.76
2019-02-25T12:18:39.557Z,22.69
2019-02-25T12:19:39.164Z,22.86
2019-02-25T12:20:39.671Z,22.91
2019-02-25T12:21:39.573Z,22.77
2019-02-25T12:22:39.794Z,23.06
2019-02-25T12:23:40.307Z,23.05
2019-02-25T12:24:39.907Z,23.00
2019-02-25T12:25:40.114Z,23.07
2019-02-25T12:26:40.629Z,23.10
2019-02-25T12:27:40.433Z,22.97
2019-02-25T12:28:40.955Z,22.99
2019-02-25T12:29:40.915Z,23.04
2019-02-25T12:30:41.275Z,23.10
2019-02-25T12:31:41.078Z,22.98
2019-02-25T12:32:41.491Z,23.14
2019-02-25T12:33:41.602Z,23.19
2019-02-25T12:34:42.095Z,23.24
2019-02-25T12:35:42.410Z,23.05
2019-02-25T12:36:42.732Z,23.13
2019-02-25T12:37:43.161Z,23.15
2019-02-25T12:38:43.588Z,22.68
2019-02-25T12:39:43.687Z,22.80
2019-02-25T12:40:44.218Z,22.76
2019-02-25T12:41:43.906Z,22.82
2019-02-25T12:42:44.421Z,22.73
2019-02-25T12:43:44.327Z,22.68
2019-02-25T12:44:44.647Z,22.60
2019-02-25T12:45:45.063Z,22.60
2019-02-25T12:46:45.271Z,22.52
2019-02-25T12:47:45.786Z,22.34
2019-02-25T12:48:45.808Z,22.52
2019-02-25T12:49:45.705Z,22.43
2019-02-25T12:50:45.812Z,22.14
2019-02-25T12:51:46.438Z,22.06
2019-02-25T12:52:46.128Z,22.29
2019-02-25T12:53:46.337Z,22.21
2019-02-25T12:54:46.654Z,22.19
2019-02-25T12:55:47.184Z,22.15